Time;durP1;ratioP1;P1;durP2;ratioP2;P2;SDS_P1;SDS_P2;PMS_P1;PMS_P2;Temp;Humidity;BMP_temperature;BMP_pressure;BME280_temperature;BME280_humidity;BME280_pressure;Samples;Min_cycle;Max_cycle;Signal;HPM_P1;HPM_P2
2023/09/12 00:01:06;;;;;;;3.67;3.38;;;;;;;;;;4994790;28;20046;-62
2023/09/12 00:03:33;;;;;;;3.67;3.47;;;;;;;;;;4994927;28;20480;-63
2023/09/12 00:06:00;;;;;;;4.00;3.60;;;;;;;;;;4990326;28;20055;-62
2023/09/12 00:08:25;;;;;;;3.70;3.50;;;;;;;;;;4996499;28;20041;-62
2023/09/12 00:11:10;;;;;;;4.25;3.95;;;;;;;;;;4991847;28;20404;-63
2023/09/12 00:13:37;;;;;;;3.80;3.50;;;;;;;;;;4991553;28;20037;-63
2023/09/12 00:16:03;;;;;;;3.90;3.60;;;;;;;;;;4990403;28;20120;-63
2023/09/12 00:18:29;;;;;;;3.90;3.60;;;;;;;;;;4992755;28;20054;-63
2023/09/12 00:20:54;;;;;;;4.95;3.70;;;;;;;;;;4995711;28;20097;-63
2023/09/12 00:23:21;;;;;;;3.60;3.30;;;;;;;;;;4993747;28;20036;-62
2023/09/12 00:25:47;;;;;;;5.00;3.55;;;;;;;;;;4981936;28;20042;-63
2023/09/12 00:28:12;;;;;;;3.70;3.40;;;;;;;;;;4990694;28;20113;-62
2023/09/12 00:30:38;;;;;;;3.90;3.60;;;;;;;;;;4992958;28;20045;-63
2023/09/12 00:33:03;;;;;;;4.00;3.70;;;;;;;;;;4993028;28;20053;-63
2023/09/12 00:35:29;;;;;;;3.85;3.47;;;;;;;;;;4984586;28;20153;-63
2023/09/12 00:37:54;;;;;;;3.47;3.28;;;;;;;;;;4985711;28;20038;-63
2023/09/12 00:40:19;;;;;;;4.00;3.70;;;;;;;;;;4985860;28;20062;-63
2023/09/12 00:42:45;;;;;;;4.82;3.88;;;;;;;;;;4990350;28;20542;-63
2023/09/12 00:45:10;;;;;;;3.67;3.45;;;;;;;;;;4990957;28;20488;-63
2023/09/12 00:47:36;;;;;;;4.45;3.55;;;;;;;;;;4991288;28;20473;-63
2023/09/12 00:50:04;;;;;;;4.05;3.70;;;;;;;;;;4994194;28;20040;-62
2023/09/12 00:52:33;;;;;;;3.78;3.47;;;;;;;;;;4993435;28;20117;-62
2023/09/12 00:54:58;;;;;;;3.65;3.35;;;;;;;;;;4989074;28;20049;-62
2023/09/12 00:57:25;;;;;;;4.47;3.63;;;;;;;;;;4985773;28;20046;-63
2023/09/12 00:59:51;;;;;;;3.70;3.42;;;;;;;;;;4995324;28;20039;-63
2023/09/12 01:02:20;;;;;;;3.97;3.60;;;;;;;;;;4993407;28;20026;-62
2023/09/12 01:04:47;;;;;;;4.05;3.75;;;;;;;;;;4985468;28;20077;-62
2023/09/12 01:07:12;;;;;;;3.88;3.58;;;;;;;;;;4986098;28;20117;-62
2023/09/12 01:09:38;;;;;;;3.70;3.40;;;;;;;;;;4992107;28;20125;-62
2023/09/12 01:12:04;;;;;;;3.58;3.30;;;;;;;;;;4993156;28;20030;-63
2023/09/12 01:14:30;;;;;;;4.05;3.72;;;;;;;;;;4991070;28;20077;-62
2023/09/12 01:16:57;;;;;;;3.88;3.45;;;;;;;;;;4990512;28;20027;-63
2023/09/12 01:19:23;;;;;;;4.25;3.85;;;;;;;;;;4991376;28;20101;-63
2023/09/12 01:22:24;;;;;;;3.88;3.55;;;;;;;;;;4992886;28;20502;-63
2023/09/12 01:25:18;;;;;;;3.75;3.53;;;;;;;;;;4975079;28;20043;-63
2023/09/12 01:27:51;;;;;;;5.03;3.85;;;;;;;;;;4975766;28;20042;-63
2023/09/12 01:30:25;;;;;;;7.90;3.90;;;;;;;;;;4990913;28;20069;-62
2023/09/12 01:32:50;;;;;;;3.70;3.40;;;;;;;;;;4987639;28;20093;-62
2023/09/12 01:35:16;;;;;;;4.00;3.70;;;;;;;;;;4991932;28;20058;-62
2023/09/12 01:37:41;;;;;;;4.20;3.80;;;;;;;;;;4992766;28;20032;-63
2023/09/12 01:40:07;;;;;;;5.28;3.38;;;;;;;;;;4983479;28;20042;-63
2023/09/12 01:42:48;;;;;;;3.97;3.67;;;;;;;;;;4979608;28;20027;-62
2023/09/12 01:45:16;;;;;;;4.00;3.70;;;;;;;;;;5024918;28;20485;-62
2023/09/12 01:47:42;;;;;;;3.97;3.67;;;;;;;;;;4998630;28;20424;-63
2023/09/12 01:50:13;;;;;;;4.20;3.90;;;;;;;;;;4996896;28;20049;-62
2023/09/12 01:52:40;;;;;;;3.95;3.65;;;;;;;;;;4988715;28;20053;-62
2023/09/12 01:55:09;;;;;;;4.10;3.80;;;;;;;;;;4986571;28;20035;-62
2023/09/12 01:57:35;;;;;;;4.13;3.83;;;;;;;;;;4989634;28;20056;-63
2023/09/12 02:00:01;;;;;;;4.20;3.85;;;;;;;;;;4996710;28;20523;-62
2023/09/12 02:02:26;;;;;;;3.72;3.42;;;;;;;;;;4997334;28;20030;-63
2023/09/12 02:05:05;;;;;;;4.35;3.95;;;;;;;;;;4986408;28;20041;-63
2023/09/12 02:07:33;;;;;;;4.28;3.67;;;;;;;;;;4988590;28;20052;-63
2023/09/12 02:10:00;;;;;;;3.70;3.50;;;;;;;;;;4992882;28;20113;-63
2023/09/12 02:12:25;;;;;;;5.60;4.00;;;;;;;;;;4996895;28;20053;-63
2023/09/12 02:14:51;;;;;;;3.80;3.60;;;;;;;;;;4994310;28;21871;-63
2023/09/12 02:17:16;;;;;;;3.90;3.60;;;;;;;;;;4992464;28;20030;-62
2023/09/12 02:19:41;;;;;;;5.25;4.00;;;;;;;;;;4994631;28;20137;-62
2023/09/12 02:22:07;;;;;;;4.30;4.00;;;;;;;;;;4996721;28;20416;-63
2023/09/12 02:24:35;;;;;;;5.47;3.90;;;;;;;;;;4997736;28;20519;-63
2023/09/12 02:27:00;;;;;;;4.53;4.15;;;;;;;;;;4995843;28;20105;-63
2023/09/12 02:29:25;;;;;;;6.55;4.25;;;;;;;;;;4991748;28;20066;-63
2023/09/12 02:31:51;;;;;;;4.03;3.60;;;;;;;;;;4990478;28;20035;-63
2023/09/12 02:34:16;;;;;;;5.13;3.90;;;;;;;;;;4993693;28;20560;-63
2023/09/12 02:36:42;;;;;;;4.07;3.67;;;;;;;;;;4996182;28;20041;-63
2023/09/12 02:39:07;;;;;;;5.78;4.05;;;;;;;;;;4987850;28;20015;-62
2023/09/12 02:41:32;;;;;;;4.20;3.90;;;;;;;;;;4996686;28;20104;-63
2023/09/12 02:43:58;;;;;;;4.75;3.70;;;;;;;;;;4996557;28;20107;-62
2023/09/12 02:46:24;;;;;;;4.22;3.80;;;;;;;;;;4991023;28;20053;-63
2023/09/12 02:48:49;;;;;;;4.30;3.95;;;;;;;;;;4995600;28;20034;-62
2023/09/12 02:51:15;;;;;;;4.10;3.67;;;;;;;;;;4994664;28;20039;-63
2023/09/12 02:53:40;;;;;;;4.65;4.35;;;;;;;;;;4993362;28;20034;-62
2023/09/12 02:56:05;;;;;;;3.72;3.42;;;;;;;;;;4976711;28;20058;-63
2023/09/12 02:58:31;;;;;;;3.95;3.70;;;;;;;;;;4995571;28;20037;-62
2023/09/12 03:00:56;;;;;;;3.80;3.50;;;;;;;;;;4988414;28;20113;-63
2023/09/12 03:03:22;;;;;;;4.60;4.22;;;;;;;;;;4995513;28;20034;-63
2023/09/12 03:05:47;;;;;;;4.05;3.65;;;;;;;;;;4986107;28;20038;-62
2023/09/12 03:08:12;;;;;;;3.97;3.67;;;;;;;;;;4997424;28;20553;-62
2023/09/12 03:10:38;;;;;;;4.00;3.70;;;;;;;;;;4989884;28;20049;-63
2023/09/12 03:13:03;;;;;;;4.07;3.78;;;;;;;;;;5007660;28;20065;-62
2023/09/12 03:15:29;;;;;;;3.90;3.60;;;;;;;;;;4995253;28;20129;-62
2023/09/12 03:17:54;;;;;;;4.47;4.07;;;;;;;;;;4993551;28;20055;-62
2023/09/12 03:20:20;;;;;;;5.93;4.00;;;;;;;;;;4994695;28;20053;-63
2023/09/12 03:22:46;;;;;;;6.13;3.83;;;;;;;;;;4990984;28;20042;-62
2023/09/12 03:25:11;;;;;;;4.03;3.72;;;;;;;;;;4981117;28;20034;-62
2023/09/12 03:27:36;;;;;;;5.07;4.15;;;;;;;;;;4993861;28;20042;-62
2023/09/12 03:30:03;;;;;;;4.32;3.92;;;;;;;;;;4993325;28;20455;-62
2023/09/12 03:32:29;;;;;;;4.70;4.30;;;;;;;;;;4983950;28;20098;-62
2023/09/12 03:34:54;;;;;;;4.57;4.18;;;;;;;;;;4994268;28;20062;-62
2023/09/12 03:37:21;;;;;;;5.18;3.70;;;;;;;;;;4991426;28;20034;-62
2023/09/12 03:39:47;;;;;;;4.00;3.75;;;;;;;;;;4994289;28;20407;-62
2023/09/12 03:42:12;;;;;;;4.55;4.15;;;;;;;;;;4996427;28;20105;-62
2023/09/12 03:44:37;;;;;;;4.47;3.72;;;;;;;;;;4984429;28;20517;-62
2023/09/12 03:47:03;;;;;;;4.35;4.00;;;;;;;;;;4987570;28;20101;-62
2023/09/12 03:49:29;;;;;;;4.03;3.72;;;;;;;;;;4995095;28;20048;-62
2023/09/12 03:51:54;;;;;;;8.85;3.85;;;;;;;;;;4991938;28;20421;-62
2023/09/12 03:54:19;;;;;;;4.53;3.50;;;;;;;;;;4994948;28;20038;-62
2023/09/12 03:56:45;;;;;;;4.63;3.42;;;;;;;;;;4989098;28;20495;-62
2023/09/12 03:59:11;;;;;;;5.63;3.78;;;;;;;;;;4987008;28;21619;-62
2023/09/12 04:01:37;;;;;;;4.40;3.97;;;;;;;;;;4994297;28;20045;-63
2023/09/12 04:04:03;;;;;;;4.32;3.70;;;;;;;;;;4993415;28;20018;-62
2023/09/12 04:06:28;;;;;;;4.07;3.80;;;;;;;;;;4990260;28;20160;-62
2023/09/12 04:08:54;;;;;;;4.32;3.92;;;;;;;;;;4992505;28;20030;-63
2023/09/12 04:11:19;;;;;;;5.03;3.67;;;;;;;;;;4991230;28;20515;-62
2023/09/12 04:13:45;;;;;;;4.43;4.03;;;;;;;;;;4988429;28;20400;-63
2023/09/12 04:16:10;;;;;;;6.50;4.55;;;;;;;;;;4990884;28;20590;-62
2023/09/12 04:18:35;;;;;;;4.50;3.58;;;;;;;;;;4995843;28;20060;-62
2023/09/12 04:21:01;;;;;;;4.22;3.92;;;;;;;;;;4995233;28;20046;-62
2023/09/12 04:23:26;;;;;;;4.05;3.65;;;;;;;;;;4993485;28;20034;-63
2023/09/12 04:25:52;;;;;;;5.47;4.00;;;;;;;;;;4994021;28;20046;-62
2023/09/12 04:28:17;;;;;;;5.32;3.70;;;;;;;;;;4986597;28;20416;-63
2023/09/12 04:30:42;;;;;;;4.15;3.75;;;;;;;;;;4985079;28;20056;-63
2023/09/12 04:33:08;;;;;;;5.28;4.00;;;;;;;;;;4990232;28;20069;-63
2023/09/12 04:35:34;;;;;;;4.05;3.75;;;;;;;;;;4991380;28;20050;-62
2023/09/12 04:38:00;;;;;;;5.50;3.60;;;;;;;;;;4984362;28;20101;-63
2023/09/12 04:40:25;;;;;;;4.22;3.60;;;;;;;;;;4985071;28;20125;-63
2023/09/12 04:42:50;;;;;;;4.00;3.70;;;;;;;;;;4994195;28;20122;-62
2023/09/12 04:45:16;;;;;;;3.95;3.25;;;;;;;;;;4990264;28;20041;-62
2023/09/12 04:47:41;;;;;;;4.32;3.92;;;;;;;;;;4986571;28;20038;-63
2023/09/12 04:50:07;;;;;;;4.65;3.80;;;;;;;;;;4991990;28;20048;-63
2023/09/12 04:52:33;;;;;;;5.00;4.15;;;;;;;;;;4983845;28;20027;-62
2023/09/12 04:54:58;;;;;;;4.25;3.95;;;;;;;;;;4994114;28;20034;-62
2023/09/12 04:57:23;;;;;;;7.72;4.13;;;;;;;;;;4990731;28;20042;-63
2023/09/12 04:59:51;;;;;;;4.50;4.10;;;;;;;;;;4992814;28;20489;-63
2023/09/12 05:02:16;;;;;;;4.80;3.95;;;;;;;;;;4988987;28;20161;-62
2023/09/12 05:04:41;;;;;;;4.32;3.92;;;;;;;;;;4987638;28;20202;-62
2023/09/12 05:07:07;;;;;;;6.32;3.70;;;;;;;;;;4986445;28;20038;-62
2023/09/12 05:09:32;;;;;;;4.22;3.92;;;;;;;;;;4982959;28;20046;-62
2023/09/12 05:11:58;;;;;;;4.90;4.03;;;;;;;;;;4989483;28;20097;-62
2023/09/12 05:14:23;;;;;;;6.18;3.55;;;;;;;;;;4986502;28;20051;-63
2023/09/12 05:16:48;;;;;;;4.20;3.80;;;;;;;;;;4992486;28;20042;-63
2023/09/12 05:19:14;;;;;;;3.78;3.40;;;;;;;;;;4990440;28;20092;-63
2023/09/12 05:21:39;;;;;;;6.97;3.90;;;;;;;;;;4994120;28;20030;-62
2023/09/12 05:24:05;;;;;;;3.60;3.30;;;;;;;;;;4990269;28;20033;-63
2023/09/12 05:26:31;;;;;;;4.18;3.88;;;;;;;;;;4989738;28;20037;-62
2023/09/12 05:28:56;;;;;;;4.05;3.50;;;;;;;;;;4985406;28;20121;-61
2023/09/12 05:31:21;;;;;;;6.10;3.60;;;;;;;;;;4993092;28;20038;-63
2023/09/12 05:33:48;;;;;;;3.70;3.40;;;;;;;;;;4990343;28;20030;-62
2023/09/12 05:36:14;;;;;;;6.43;3.63;;;;;;;;;;4984342;28;20433;-65
2023/09/12 05:38:39;;;;;;;3.72;3.40;;;;;;;;;;4981677;28;20034;-64
2023/09/12 05:41:04;;;;;;;4.20;3.80;;;;;;;;;;4986113;28;20043;-64
2023/09/12 05:43:30;;;;;;;4.30;3.90;;;;;;;;;;4992349;28;20029;-64
2023/09/12 05:45:57;;;;;;;6.45;3.80;;;;;;;;;;4991552;28;20042;-65
2023/09/12 05:48:22;;;;;;;5.75;3.92;;;;;;;;;;4988871;28;20037;-65
2023/09/12 05:50:48;;;;;;;4.45;4.05;;;;;;;;;;4990905;28;20121;-66
2023/09/12 05:53:14;;;;;;;3.70;3.40;;;;;;;;;;4997431;28;20098;-65
2023/09/12 05:55:40;;;;;;;7.18;3.53;;;;;;;;;;4991588;28;20096;-65
2023/09/12 05:58:05;;;;;;;3.95;3.60;;;;;;;;;;4985116;28;20038;-66
2023/09/12 06:00:31;;;;;;;11.27;4.22;;;;;;;;;;4991420;28;20082;-68
2023/09/12 06:02:57;;;;;;;5.55;3.80;;;;;;;;;;4986553;28;20088;-65
2023/09/12 06:05:22;;;;;;;7.65;3.95;;;;;;;;;;4989469;28;20034;-65
2023/09/12 06:07:48;;;;;;;9.85;3.72;;;;;;;;;;4986593;28;20026;-65
2023/09/12 06:10:13;;;;;;;9.35;3.90;;;;;;;;;;4986753;28;20035;-66
2023/09/12 06:12:38;;;;;;;7.28;3.67;;;;;;;;;;4984393;28;20118;-67
2023/09/12 06:15:05;;;;;;;4.40;3.70;;;;;;;;;;4984954;28;20065;-65
2023/09/12 06:17:30;;;;;;;8.50;3.63;;;;;;;;;;4988409;28;20034;-65
2023/09/12 06:19:56;;;;;;;7.45;3.75;;;;;;;;;;4988224;28;20725;-66
2023/09/12 06:22:22;;;;;;;6.95;3.70;;;;;;;;;;4986643;28;20039;-66
2023/09/12 06:24:49;;;;;;;4.82;4.03;;;;;;;;;;4995393;28;20064;-66
2023/09/12 06:27:18;;;;;;;4.00;3.60;;;;;;;;;;4996298;28;20077;-66
2023/09/12 06:29:50;;;;;;;3.90;3.55;;;;;;;;;;4979099;28;20065;-66
2023/09/12 06:32:17;;;;;;;4.63;3.33;;;;;;;;;;4988870;28;20044;-66
2023/09/12 06:34:43;;;;;;;4.47;3.70;;;;;;;;;;4989217;28;20038;-66
2023/09/12 06:37:10;;;;;;;7.40;3.67;;;;;;;;;;4989846;28;20506;-66
2023/09/12 06:39:35;;;;;;;3.75;3.45;;;;;;;;;;4994687;28;20050;-66
2023/09/12 06:42:02;;;;;;;4.40;3.90;;;;;;;;;;4994899;28;20028;-66
2023/09/12 06:44:27;;;;;;;4.30;3.80;;;;;;;;;;4991626;28;20053;-66
2023/09/12 06:46:52;;;;;;;4.45;3.40;;;;;;;;;;4974764;28;20035;-66
2023/09/12 06:49:18;;;;;;;7.00;3.50;;;;;;;;;;5019249;28;20050;-66
2023/09/12 06:51:43;;;;;;;4.93;4.00;;;;;;;;;;4993927;28;20026;-65
2023/09/12 06:54:08;;;;;;;4.78;3.72;;;;;;;;;;4992297;28;20089;-66
2023/09/12 06:56:37;;;;;;;7.18;3.85;;;;;;;;;;4972193;28;20057;-66
2023/09/12 06:59:04;;;;;;;3.58;3.38;;;;;;;;;;4985235;28;20069;-66
2023/09/12 07:01:29;;;;;;;5.15;3.40;;;;;;;;;;4985454;28;20062;-67
2023/09/12 07:03:56;;;;;;;4.00;3.70;;;;;;;;;;4995056;28;20033;-66
2023/09/12 07:06:21;;;;;;;3.42;3.22;;;;;;;;;;4984937;28;20065;-66
2023/09/12 07:08:47;;;;;;;3.58;3.28;;;;;;;;;;4986253;28;20037;-66
2023/09/12 07:11:12;;;;;;;3.50;3.20;;;;;;;;;;4988739;28;20034;-67
2023/09/12 07:13:38;;;;;;;3.40;2.97;;;;;;;;;;4986317;28;20526;-67
2023/09/12 07:16:04;;;;;;;4.40;3.45;;;;;;;;;;4987703;28;20030;-67
2023/09/12 07:18:32;;;;;;;4.88;3.30;;;;;;;;;;4989929;28;20078;-67
2023/09/12 07:20:59;;;;;;;4.40;3.30;;;;;;;;;;4996243;28;20038;-67
2023/09/12 07:23:24;;;;;;;3.47;3.17;;;;;;;;;;4991139;28;20392;-66
2023/09/12 07:25:50;;;;;;;3.50;3.20;;;;;;;;;;4996572;28;20030;-66
2023/09/12 07:28:16;;;;;;;4.50;3.60;;;;;;;;;;4993977;28;20041;-67
2023/09/12 07:30:41;;;;;;;3.30;3.10;;;;;;;;;;4996436;28;20038;-67
2023/09/12 07:33:06;;;;;;;3.13;2.92;;;;;;;;;;4991060;28;20046;-67
2023/09/12 07:35:32;;;;;;;5.15;3.67;;;;;;;;;;4989607;28;20042;-66
2023/09/12 07:37:57;;;;;;;5.05;3.25;;;;;;;;;;4990241;28;20036;-67
2023/09/12 07:40:23;;;;;;;3.50;3.20;;;;;;;;;;5017313;28;20050;-67
2023/09/12 07:42:48;;;;;;;4.43;3.42;;;;;;;;;;4989774;28;20034;-66
2023/09/12 07:45:14;;;;;;;3.25;3.05;;;;;;;;;;4993572;28;20038;-66
2023/09/12 07:47:39;;;;;;;3.17;2.83;;;;;;;;;;4990478;28;20034;-66
2023/09/12 07:50:06;;;;;;;6.47;3.13;;;;;;;;;;4980986;28;20034;-66
2023/09/12 07:52:32;;;;;;;5.68;3.70;;;;;;;;;;4991510;28;20111;-66
2023/09/12 07:55:04;;;;;;;5.20;2.75;;;;;;;;;;4989656;28;20038;-66
2023/09/12 07:57:29;;;;;;;3.40;3.20;;;;;;;;;;4985583;28;20591;-66
2023/09/12 07:59:58;;;;;;;3.80;3.33;;;;;;;;;;5026901;28;20070;-66
2023/09/12 08:02:23;;;;;;;4.95;3.50;;;;;;;;;;4993368;28;20037;-66
2023/09/12 08:04:56;;;;;;;7.47;3.17;;;;;;;;;;4995225;28;20034;-66
2023/09/12 08:07:21;;;;;;;3.35;3.03;;;;;;;;;;4992953;28;20061;-66
2023/09/12 08:09:57;;;;;;;3.17;2.88;;;;;;;;;;4994476;28;20031;-66
2023/09/12 08:12:25;;;;;;;2.97;2.78;;;;;;;;;;4986612;28;20060;-66
2023/09/12 08:14:51;;;;;;;3.25;2.95;;;;;;;;;;4993614;28;20381;-66
2023/09/12 08:17:17;;;;;;;3.28;3.00;;;;;;;;;;4988608;28;20091;-66
2023/09/12 08:19:43;;;;;;;3.55;3.15;;;;;;;;;;4992224;28;20440;-66
2023/09/12 08:22:09;;;;;;;3.08;2.88;;;;;;;;;;4986364;28;20022;-66
2023/09/12 08:24:35;;;;;;;3.28;2.97;;;;;;;;;;4993540;28;20070;-66
2023/09/12 08:27:01;;;;;;;3.20;2.97;;;;;;;;;;4992418;28;20010;-66
2023/09/12 08:29:31;;;;;;;3.25;2.95;;;;;;;;;;4983585;28;20426;-66
2023/09/12 08:31:58;;;;;;;3.22;3.03;;;;;;;;;;4984810;28;20030;-65
2023/09/12 08:34:23;;;;;;;2.90;2.70;;;;;;;;;;4946258;28;20052;-65
2023/09/12 08:36:49;;;;;;;3.47;3.25;;;;;;;;;;4997021;28;20114;-65
2023/09/12 08:39:16;;;;;;;3.28;3.00;;;;;;;;;;4985556;28;20023;-65
2023/09/12 08:41:48;;;;;;;3.05;2.85;;;;;;;;;;4993284;28;20040;-66
2023/09/12 08:44:14;;;;;;;3.80;3.00;;;;;;;;;;4994295;28;20057;-66
2023/09/12 08:46:42;;;;;;;4.95;3.22;;;;;;;;;;4981499;28;20038;-67
2023/09/12 08:49:09;;;;;;;4.57;3.17;;;;;;;;;;4989667;28;20031;-65
2023/09/12 08:51:35;;;;;;;13.18;3.13;;;;;;;;;;4989741;28;20049;-67
2023/09/12 08:54:03;;;;;;;4.38;3.25;;;;;;;;;;4994609;28;20030;-66
2023/09/12 08:56:30;;;;;;;5.82;3.03;;;;;;;;;;4986222;28;20041;-67
2023/09/12 08:58:57;;;;;;;5.22;3.72;;;;;;;;;;4992677;28;20026;-66
2023/09/12 09:01:27;;;;;;;5.68;3.63;;;;;;;;;;4999374;28;20046;-66
2023/09/12 09:03:53;;;;;;;3.78;3.58;;;;;;;;;;5000035;28;20647;-66
2023/09/12 09:06:21;;;;;;;4.05;3.58;;;;;;;;;;4985447;28;20083;-66
2023/09/12 09:08:48;;;;;;;7.97;3.70;;;;;;;;;;4989796;28;20077;-66
2023/09/12 09:11:14;;;;;;;16.02;4.15;;;;;;;;;;4994281;28;20057;-66
2023/09/12 09:13:39;;;;;;;3.78;3.42;;;;;;;;;;4995245;28;20488;-66
2023/09/12 09:16:13;;;;;;;4.72;3.75;;;;;;;;;;4992792;28;20042;-67
2023/09/12 09:18:51;;;;;;;4.43;3.67;;;;;;;;;;4989089;28;20481;-67
2023/09/12 09:21:19;;;;;;;5.55;3.60;;;;;;;;;;4996099;28;20738;-67
2023/09/12 09:23:46;;;;;;;4.03;3.60;;;;;;;;;;4988458;28;20061;-66
2023/09/12 09:26:12;;;;;;;3.72;3.42;;;;;;;;;;4982644;28;20057;-68
2023/09/12 09:28:39;;;;;;;10.93;3.83;;;;;;;;;;4986633;28;20034;-67
2023/09/12 09:31:10;;;;;;;5.20;4.03;;;;;;;;;;4989708;28;20056;-67
2023/09/12 09:33:36;;;;;;;3.90;3.60;;;;;;;;;;4996795;28;20552;-67
2023/09/12 09:36:03;;;;;;;6.78;3.67;;;;;;;;;;4998104;28;20031;-67
2023/09/12 09:38:29;;;;;;;9.18;4.00;;;;;;;;;;4997934;28;20388;-67
2023/09/12 09:40:55;;;;;;;4.07;3.67;;;;;;;;;;4992024;28;20047;-67
2023/09/12 09:43:21;;;;;;;5.25;4.05;;;;;;;;;;4991715;28;20038;-67
2023/09/12 09:45:47;;;;;;;5.85;4.43;;;;;;;;;;4995663;28;20050;-67
2023/09/12 09:48:19;;;;;;;5.70;4.38;;;;;;;;;;4994482;28;20037;-67
2023/09/12 09:50:44;;;;;;;4.97;4.07;;;;;;;;;;4996111;28;20045;-67
2023/09/12 09:53:10;;;;;;;4.43;4.00;;;;;;;;;;4990156;28;20030;-68
2023/09/12 09:55:36;;;;;;;4.30;4.00;;;;;;;;;;4990826;28;20042;-69
2023/09/12 09:58:02;;;;;;;5.18;4.00;;;;;;;;;;4989540;28;20041;-69
2023/09/12 10:00:31;;;;;;;4.45;3.72;;;;;;;;;;4985375;28;20042;-67
2023/09/12 10:02:59;;;;;;;4.00;3.63;;;;;;;;;;4991731;28;20037;-67
2023/09/12 10:05:25;;;;;;;3.85;3.55;;;;;;;;;;4981846;28;20050;-71
2023/09/12 10:07:52;;;;;;;4.30;3.90;;;;;;;;;;4991390;28;20387;-68
2023/09/12 10:10:19;;;;;;;3.90;3.60;;;;;;;;;;4988117;28;20038;-68
2023/09/12 10:12:58;;;;;;;3.40;3.10;;;;;;;;;;4988205;28;20033;-68
2023/09/12 10:15:28;;;;;;;5.10;3.50;;;;;;;;;;4984258;28;20448;-68
2023/09/12 10:18:07;;;;;;;4.28;3.35;;;;;;;;;;4988987;28;20050;-68
2023/09/12 10:20:37;;;;;;;6.05;3.42;;;;;;;;;;4991956;28;20783;-67
2023/09/12 10:23:11;;;;;;;3.50;3.20;;;;;;;;;;4990184;28;20061;-68
2023/09/12 10:25:38;;;;;;;10.05;3.05;;;;;;;;;;4990257;28;20054;-67
2023/09/12 10:28:06;;;;;;;3.60;3.30;;;;;;;;;;4995183;28;20412;-67
2023/09/12 10:30:32;;;;;;;3.15;2.95;;;;;;;;;;4991756;28;20071;-67
2023/09/12 10:33:00;;;;;;;3.33;3.13;;;;;;;;;;4982689;28;20038;-71
2023/09/12 10:35:27;;;;;;;3.30;3.00;;;;;;;;;;4988560;28;20038;-70
2023/09/12 10:37:55;;;;;;;6.93;2.75;;;;;;;;;;4986251;28;20041;-70
2023/09/12 10:40:21;;;;;;;5.90;3.00;;;;;;;;;;4995922;28;20039;-69
2023/09/12 10:42:48;;;;;;;3.17;2.97;;;;;;;;;;4996744;28;20041;-70
2023/09/12 10:45:13;;;;;;;3.45;3.13;;;;;;;;;;4991964;28;20042;-70
2023/09/12 10:47:39;;;;;;;3.03;2.75;;;;;;;;;;4994201;28;20146;-70
2023/09/12 10:50:06;;;;;;;6.88;2.90;;;;;;;;;;4996525;28;20160;-69
2023/09/12 10:52:32;;;;;;;4.60;2.90;;;;;;;;;;4988965;28;20037;-70
2023/09/12 10:54:58;;;;;;;3.42;3.20;;;;;;;;;;4995638;28;20505;-69
2023/09/12 10:57:23;;;;;;;4.40;2.83;;;;;;;;;;4992132;28;20058;-70
2023/09/12 11:00:13;;;;;;;3.10;2.88;;;;;;;;;;4995661;28;20096;-70
2023/09/12 11:02:39;;;;;;;2.95;2.75;;;;;;;;;;4986175;28;20077;-69
2023/09/12 11:05:07;;;;;;;4.50;2.80;;;;;;;;;;4995914;28;20042;-70
2023/09/12 11:07:35;;;;;;;2.95;2.60;;;;;;;;;;4997205;28;20038;-70
2023/09/12 11:10:21;;;;;;;3.25;2.88;;;;;;;;;;4995730;28;20069;-70
2023/09/12 11:12:51;;;;;;;3.03;2.70;;;;;;;;;;4993177;28;20061;-70
2023/09/12 11:15:21;;;;;;;3.50;3.25;;;;;;;;;;4986897;28;20065;-70
2023/09/12 11:17:48;;;;;;;3.60;2.83;;;;;;;;;;5011168;28;20574;-70
2023/09/12 11:20:15;;;;;;;3.22;2.67;;;;;;;;;;4987406;28;20034;-70
2023/09/12 11:22:45;;;;;;;3.13;2.92;;;;;;;;;;4993865;28;20129;-70
2023/09/12 11:25:23;;;;;;;3.08;2.88;;;;;;;;;;4990430;28;20050;-70
2023/09/12 11:27:51;;;;;;;3.05;2.85;;;;;;;;;;4981293;28;20038;-70
2023/09/12 11:30:18;;;;;;;2.88;2.67;;;;;;;;;;4989724;28;20125;-70
2023/09/12 11:32:48;;;;;;;3.35;2.72;;;;;;;;;;4993744;28;20408;-70
2023/09/12 11:35:14;;;;;;;3.20;3.00;;;;;;;;;;4993271;28;20037;-70
2023/09/12 11:37:48;;;;;;;3.13;2.92;;;;;;;;;;4997016;28;20583;-70
2023/09/12 11:40:14;;;;;;;2.80;2.60;;;;;;;;;;4995093;28;20074;-70
2023/09/12 11:42:39;;;;;;;3.17;2.70;;;;;;;;;;4992276;28;20081;-71
2023/09/12 11:45:08;;;;;;;2.95;2.75;;;;;;;;;;4993443;28;20407;-70
2023/09/12 11:47:34;;;;;;;3.28;3.08;;;;;;;;;;4995340;28;20029;-71
2023/09/12 11:49:59;;;;;;;3.00;2.80;;;;;;;;;;4991526;28;20030;-71
2023/09/12 11:52:25;;;;;;;2.85;2.72;;;;;;;;;;4993371;28;20033;-70
2023/09/12 11:54:50;;;;;;;3.05;2.85;;;;;;;;;;4978445;28;20704;-71
2023/09/12 11:57:16;;;;;;;2.80;2.70;;;;;;;;;;4990187;28;20149;-73
2023/09/12 11:59:48;;;;;;;2.88;2.72;;;;;;;;;;4990940;28;20096;-68
2023/09/12 12:02:14;;;;;;;3.33;2.95;;;;;;;;;;4993353;28;20168;-66
2023/09/12 12:04:40;;;;;;;2.88;2.58;;;;;;;;;;4993364;28;20070;-68
2023/09/12 12:07:06;;;;;;;3.20;3.00;;;;;;;;;;4992733;28;20026;-68
2023/09/12 12:09:32;;;;;;;3.47;3.03;;;;;;;;;;4989824;28;20519;-69
2023/09/12 12:12:25;;;;;;;6.10;3.10;;;;;;;;;;4990605;28;20026;-70
2023/09/12 12:14:50;;;;;;;3.10;2.90;;;;;;;;;;4987939;28;20041;-69
2023/09/12 12:17:16;;;;;;;4.03;2.85;;;;;;;;;;4992078;28;20029;-67
2023/09/12 12:19:45;;;;;;;3.38;3.08;;;;;;;;;;4993517;28;20046;-67
2023/09/12 12:22:10;;;;;;;4.43;2.90;;;;;;;;;;4994239;28;20399;-67
2023/09/12 12:24:46;;;;;;;2.65;2.50;;;;;;;;;;4993972;28;20046;-67
2023/09/12 12:27:14;;;;;;;3.05;2.85;;;;;;;;;;4990816;28;20121;-67
2023/09/12 12:29:39;;;;;;;3.30;2.97;;;;;;;;;;4994805;28;20125;-67
2023/09/12 12:32:05;;;;;;;3.03;2.80;;;;;;;;;;4993104;28;20106;-67
2023/09/12 12:34:31;;;;;;;3.03;2.78;;;;;;;;;;4984080;28;20039;-67
2023/09/12 12:36:57;;;;;;;3.55;3.08;;;;;;;;;;4989814;28;20026;-67
2023/09/12 12:39:23;;;;;;;3.00;2.80;;;;;;;;;;4995357;28;20065;-67
2023/09/12 12:41:53;;;;;;;3.10;2.90;;;;;;;;;;4993675;28;20026;-67
2023/09/12 12:44:18;;;;;;;2.80;2.65;;;;;;;;;;4988212;28;20030;-67
2023/09/12 12:46:54;;;;;;;3.53;2.90;;;;;;;;;;4993004;28;20455;-67
2023/09/12 12:49:21;;;;;;;3.10;2.90;;;;;;;;;;4994881;28;20109;-67
2023/09/12 12:51:49;;;;;;;2.90;2.70;;;;;;;;;;4986481;28;20454;-73
2023/09/12 12:54:15;;;;;;;3.17;2.95;;;;;;;;;;4991987;28;20105;-72
2023/09/12 12:56:41;;;;;;;3.00;2.75;;;;;;;;;;4992076;28;20029;-73
2023/09/12 12:59:08;;;;;;;3.28;2.97;;;;;;;;;;4982221;28;20034;-69
2023/09/12 13:01:38;;;;;;;5.68;2.85;;;;;;;;;;4993042;28;20029;-69
2023/09/12 13:04:08;;;;;;;19.23;2.97;;;;;;;;;;4986984;28;20038;-75
2023/09/12 13:06:35;;;;;;;5.05;2.88;;;;;;;;;;4994529;28;20109;-73
2023/09/12 13:09:04;;;;;;;3.50;3.20;;;;;;;;;;4991400;28;20026;-72
2023/09/12 13:11:30;;;;;;;8.55;3.97;;;;;;;;;;4986857;28;20032;-72
2023/09/12 13:13:56;;;;;;;5.57;2.60;;;;;;;;;;4992995;28;20100;-69
2023/09/12 13:16:22;;;;;;;3.28;3.08;;;;;;;;;;4991800;28;20046;-70
2023/09/12 13:18:47;;;;;;;2.65;2.50;;;;;;;;;;4987285;28;20560;-70
2023/09/12 13:21:12;;;;;;;8.93;2.85;;;;;;;;;;4994541;28;20042;-70
2023/09/12 13:23:38;;;;;;;2.65;2.55;;;;;;;;;;4993300;28;20037;-73
2023/09/12 13:26:05;;;;;;;4.97;3.20;;;;;;;;;;4988079;28;20038;-69
2023/09/12 13:28:31;;;;;;;3.50;3.20;;;;;;;;;;4988687;28;20446;-70
2023/09/12 13:30:59;;;;;;;2.60;2.50;;;;;;;;;;4980269;28;20077;-73
2023/09/12 13:33:25;;;;;;;2.95;2.75;;;;;;;;;;4986787;28;20444;-71
2023/09/12 13:35:50;;;;;;;3.08;2.88;;;;;;;;;;4994319;28;20038;-71
2023/09/12 13:38:18;;;;;;;2.90;2.70;;;;;;;;;;4992545;28;20038;-70
2023/09/12 13:40:45;;;;;;;3.45;3.15;;;;;;;;;;4997694;28;20711;-73
2023/09/12 13:43:11;;;;;;;3.47;3.17;;;;;;;;;;4986389;28;21794;-69
2023/09/12 13:45:36;;;;;;;3.22;2.95;;;;;;;;;;4985810;28;20134;-69
2023/09/12 13:48:04;;;;;;;2.50;2.40;;;;;;;;;;4995897;28;20026;-69
2023/09/12 13:50:30;;;;;;;3.00;2.80;;;;;;;;;;4983645;28;20042;-68
2023/09/12 13:53:00;;;;;;;3.50;3.28;;;;;;;;;;4997048;28;20448;-69
2023/09/12 13:55:26;;;;;;;3.90;2.50;;;;;;;;;;4992249;28;20042;-71
2023/09/12 13:57:51;;;;;;;3.15;2.95;;;;;;;;;;4997929;28;20041;-71
2023/09/12 14:00:17;;;;;;;3.90;2.80;;;;;;;;;;4994218;28;20124;-70
2023/09/12 14:02:44;;;;;;;4.00;3.20;;;;;;;;;;4993383;28;20034;-71
2023/09/12 14:05:10;;;;;;;3.13;2.90;;;;;;;;;;4987758;28;20074;-71
2023/09/12 14:07:36;;;;;;;3.25;3.03;;;;;;;;;;4995710;28;20033;-70
2023/09/12 14:10:02;;;;;;;3.70;3.17;;;;;;;;;;4997143;28;20038;-69
2023/09/12 14:12:28;;;;;;;3.10;2.90;;;;;;;;;;4998303;28;20460;-71
2023/09/12 14:14:53;;;;;;;4.78;3.10;;;;;;;;;;4994289;28;20042;-69
2023/09/12 14:17:18;;;;;;;4.90;2.80;;;;;;;;;;4991974;28;20134;-70
2023/09/12 14:19:44;;;;;;;3.20;3.00;;;;;;;;;;4984835;28;20080;-69
2023/09/12 14:22:09;;;;;;;5.13;3.13;;;;;;;;;;4990057;28;20392;-69
2023/09/12 14:24:34;;;;;;;3.70;3.40;;;;;;;;;;4996367;28;20589;-68
2023/09/12 14:27:00;;;;;;;3.25;3.00;;;;;;;;;;4997303;28;20026;-68
2023/09/12 14:29:27;;;;;;;3.78;3.47;;;;;;;;;;4997057;28;20038;-68
2023/09/12 14:31:57;;;;;;;6.20;3.45;;;;;;;;;;4988278;28;20899;-68
2023/09/12 14:34:27;;;;;;;14.93;3.30;;;;;;;;;;4986836;28;20600;-70
2023/09/12 14:36:56;;;;;;;3.25;2.92;;;;;;;;;;4996260;28;20048;-70
2023/09/12 14:39:23;;;;;;;3.88;3.25;;;;;;;;;;4989867;28;20043;-70
2023/09/12 14:41:54;;;;;;;3.75;2.88;;;;;;;;;;4991239;28;20034;-69